KMUO Airport (Mountain Home Afb) Information

FAA: MUO - ICAO: KMUO

KMUO Airport Location

State Idaho
County Elmore
City Mountain Home
KMUO Airport is 10 miles southwest of Mountain Home, ID.
Latitude 43-02-36.9500N
Longitude 115-52-20.7600W
Elevation 2,996ft

KMUO Airport METARs

METAR KMUO 262313Z AUTO 27006KT 10SM BKN065 08/M03 A3025 RMK AO2 SLP256 RVRNO VISNO RWY30 $
Altimeter 30.25"
Temperature 8.0°C (46.4°F)
Wind 270° at 6KT
Clouds broken at 6,500ft
Visibility 10.0mi
Time observed: 2021-11-26T23:13:00Z

KMUO Airport Details

Status Operational
Activation February 1944
Ownership Military - Air Force
Usage Private
Chart SALT LAKE CITY
ATC on-site Yes
Beacon schedule sunset-sunrise
Beacon color clear green

KMUO Airport Contacts

Owner USAF
Owner address 347 CS GROUP, MT HOME AFB, MOUNTAIN HOME, ID 83648
Owner phone N/A
Manager RON FOUNTAIN
Manager address 709 EAST F STREET, MOSCOW, ID 83843
Manager phone 208-882-2985

KMUO Airport (Mountain Home Afb) Radio Frequencies

KMUO (Airport) Radio Frequencies

UNICOM N/A
Common traffic advisory frequency (CTAF) N/A